Time;durP1;ratioP1;P1;durP2;ratioP2;P2;SDS_P1;SDS_P2;PMS_P1;PMS_P2;Temp;Humidity;BMP_temperature;BMP_pressure;BME280_temperature;BME280_humidity;BME280_pressure;Samples;Min_cycle;Max_cycle;Signal;HPM_P1;HPM_P2
2022/05/10 00:00:48;;;;;;;16.23;5.18;;;;;;;;;;5042160;28;20048;-84
2022/05/10 00:03:16;;;;;;;0.20;0.20;;;;;;;;;;5041943;28;20036;-84
2022/05/10 00:05:42;;;;;;;0.45;0.45;;;;;;;;;;5041793;28;20036;-84
2022/05/10 00:08:13;;;;;;;1.42;0.65;;;;;;;;;;5042055;28;20083;-83
2022/05/10 00:10:40;;;;;;;0.95;0.50;;;;;;;;;;5058409;28;20040;-84
2022/05/10 00:13:06;;;;;;;0.35;0.35;;;;;;;;;;5041835;28;20169;-84
2022/05/10 00:15:33;;;;;;;0.10;0.10;;;;;;;;;;5041790;28;20193;-83
2022/05/10 00:18:01;;;;;;;0.52;0.50;;;;;;;;;;5041722;28;20036;-83
2022/05/10 00:20:43;;;;;;;0.35;0.35;;;;;;;;;;5022229;28;20048;-84
2022/05/10 00:23:09;;;;;;;0.40;0.30;;;;;;;;;;5022119;28;20381;-83
2022/05/10 00:25:35;;;;;;;0.85;0.20;;;;;;;;;;5038604;28;20128;-85
2022/05/10 00:28:01;;;;;;;0.10;0.10;;;;;;;;;;5038232;28;20053;-83
2022/05/10 00:30:28;;;;;;;0.30;0.30;;;;;;;;;;5031121;28;20044;-84
2022/05/10 00:32:54;;;;;;;0.05;0.05;;;;;;;;;;5040634;28;20044;-82
2022/05/10 00:35:25;;;;;;;0.20;0.20;;;;;;;;;;5057828;28;20476;-85
2022/05/10 00:37:53;;;;;;;0.82;0.75;;;;;;;;;;5041060;28;20105;-83
2022/05/10 00:40:22;;;;;;;0.43;0.43;;;;;;;;;;5041216;28;20047;-83
2022/05/10 00:43:01;;;;;;;0.73;0.73;;;;;;;;;;5041431;28;20036;-84
2022/05/10 00:45:35;;;;;;;0.10;0.10;;;;;;;;;;5040749;28;20037;-84
2022/05/10 00:48:09;;;;;;;3.30;2.38;;;;;;;;;;5040832;28;20097;-83
2022/05/10 00:50:48;;;;;;;1.00;0.68;;;;;;;;;;5040793;28;20127;-83
2022/05/10 00:53:41;;;;;;;0.10;0.10;;;;;;;;;;5040924;28;20082;-84
2022/05/10 00:56:09;;;;;;;0.17;0.17;;;;;;;;;;5010990;28;20062;-83
2022/05/10 00:58:54;;;;;;;0.20;0.20;;;;;;;;;;5057259;28;20040;-84
2022/05/10 01:01:25;;;;;;;0.20;0.20;;;;;;;;;;5020933;28;20045;-83
2022/05/10 01:03:51;;;;;;;0.10;0.10;;;;;;;;;;5037526;28;20037;-83
2022/05/10 01:06:24;;;;;;;0.30;0.30;;;;;;;;;;5020779;28;20040;-84
2022/05/10 01:09:09;;;;;;;0.10;0.10;;;;;;;;;;5037246;28;20045;-84
2022/05/10 01:11:44;;;;;;;0.30;0.28;;;;;;;;;;5020598;28;20399;-84
2022/05/10 01:14:19;;;;;;;0.17;0.17;;;;;;;;;;5020733;28;20043;-84
2022/05/10 01:16:46;;;;;;;0.00;0.00;;;;;;;;;;5020644;28;20491;-83
2022/05/10 01:19:13;;;;;;;0.30;0.30;;;;;;;;;;5021738;28;20106;-83
2022/05/10 01:21:58;;;;;;;0.10;0.10;;;;;;;;;;5040471;28;20076;-83
2022/05/10 01:24:31;;;;;;;0.20;0.20;;;;;;;;;;5040369;28;20044;-83
2022/05/10 01:27:10;;;;;;;0.52;0.52;;;;;;;;;;5040304;28;20044;-83
2022/05/10 01:29:36;;;;;;;0.25;0.25;;;;;;;;;;5040101;28;20044;-84
2022/05/10 01:34:52;;;;;;;0.20;0.20;;;;;;;;;;5056551;28;20136;-84
2022/05/10 01:37:21;;;;;;;0.05;0.05;;;;;;;;;;5039705;28;20037;-84
2022/05/10 01:40:01;;;;;;;0.30;0.30;;;;;;;;;;5039839;28;20127;-84
2022/05/10 01:42:37;;;;;;;0.63;0.50;;;;;;;;;;5039934;28;20386;-83
2022/05/10 01:45:06;;;;;;;0.10;0.10;;;;;;;;;;5038935;28;20101;-84
2022/05/10 01:47:53;;;;;;;2.92;1.08;;;;;;;;;;5039797;28;20048;-84
2022/05/10 01:50:28;;;;;;;0.35;0.30;;;;;;;;;;5026129;28;20053;-85
2022/05/10 01:53:06;;;;;;;0.08;0.08;;;;;;;;;;5039580;28;20055;-84
2022/05/10 01:55:34;;;;;;;0.20;0.20;;;;;;;;;;5039558;28;20045;-83
2022/05/10 01:58:03;;;;;;;0.10;0.10;;;;;;;;;;5039557;28;20041;-85
2022/05/10 02:00:32;;;;;;;0.20;0.20;;;;;;;;;;5019963;28;20041;-84
2022/05/10 02:03:02;;;;;;;0.08;0.08;;;;;;;;;;5036995;28;20513;-84
2022/05/10 02:05:30;;;;;;;0.10;0.10;;;;;;;;;;5019636;28;20119;-84
2022/05/10 02:08:00;;;;;;;0.20;0.20;;;;;;;;;;5019751;28;20048;-84
2022/05/10 02:10:30;;;;;;;0.30;0.30;;;;;;;;;;5019922;28;20104;-84
2022/05/10 02:13:01;;;;;;;0.20;0.20;;;;;;;;;;5019400;28;20067;-84
2022/05/10 02:15:39;;;;;;;0.17;0.17;;;;;;;;;;5019758;28;20091;-85
2022/05/10 02:18:12;;;;;;;0.10;0.10;;;;;;;;;;5019178;28;20083;-84
2022/05/10 02:20:42;;;;;;;0.10;0.10;;;;;;;;;;5019452;28;20111;-83
2022/05/10 02:23:13;;;;;;;0.10;0.10;;;;;;;;;;5019458;28;20037;-83
2022/05/10 02:25:43;;;;;;;0.10;0.10;;;;;;;;;;5019226;28;20076;-82
2022/05/10 02:28:22;;;;;;;0.10;0.10;;;;;;;;;;5019251;28;20083;-81
2022/05/10 02:30:51;;;;;;;0.10;0.10;;;;;;;;;;5019352;28;20391;-85
2022/05/10 02:33:18;;;;;;;0.20;0.20;;;;;;;;;;5019420;28;20075;-84
2022/05/10 02:35:46;;;;;;;0.10;0.10;;;;;;;;;;5019371;28;20044;-85
2022/05/10 02:38:14;;;;;;;0.10;0.10;;;;;;;;;;5019277;28;20036;-85
2022/05/10 02:40:42;;;;;;;0.10;0.10;;;;;;;;;;5019326;28;20088;-84
2022/05/10 02:43:14;;;;;;;0.10;0.10;;;;;;;;;;5019278;28;20040;-84
2022/05/10 02:45:40;;;;;;;0.50;0.50;;;;;;;;;;5035549;28;20037;-84
2022/05/10 02:48:13;;;;;;;0.20;0.20;;;;;;;;;;5019016;28;20158;-83
2022/05/10 02:50:39;;;;;;;0.30;0.30;;;;;;;;;;5019297;28;20055;-82
2022/05/10 02:53:05;;;;;;;0.00;0.00;;;;;;;;;;5035639;28;20045;-83
2022/05/10 02:55:41;;;;;;;0.20;0.20;;;;;;;;;;5018466;28;20045;-83
2022/05/10 02:58:11;;;;;;;0.35;0.35;;;;;;;;;;5019346;28;20494;-84
2022/05/10 03:00:37;;;;;;;5.88;4.13;;;;;;;;;;5036077;28;20052;-86
2022/05/10 03:03:07;;;;;;;0.73;0.35;;;;;;;;;;5019507;28;20394;-84
2022/05/10 03:05:33;;;;;;;0.10;0.10;;;;;;;;;;5052179;28;20098;-84
2022/05/10 03:07:59;;;;;;;0.03;0.03;;;;;;;;;;5019034;28;20036;-84
2022/05/10 03:10:25;;;;;;;0.30;0.30;;;;;;;;;;5035394;28;20052;-84
2022/05/10 03:12:51;;;;;;;0.13;0.13;;;;;;;;;;5018685;28;20410;-84
2022/05/10 03:15:17;;;;;;;0.10;0.10;;;;;;;;;;5018956;28;20045;-84
2022/05/10 03:17:43;;;;;;;0.45;0.40;;;;;;;;;;5018655;28;20048;-84
2022/05/10 03:20:10;;;;;;;0.25;0.25;;;;;;;;;;5028077;28;20481;-84
2022/05/10 03:22:36;;;;;;;0.10;0.10;;;;;;;;;;5055588;28;20040;-84
2022/05/10 03:25:02;;;;;;;0.10;0.10;;;;;;;;;;5038764;28;20043;-83
2022/05/10 03:27:35;;;;;;;0.13;0.13;;;;;;;;;;5039975;28;20546;-86
2022/05/10 03:30:02;;;;;;;0.75;0.63;;;;;;;;;;5055923;28;20116;-84
2022/05/10 03:32:30;;;;;;;0.00;0.00;;;;;;;;;;5038627;28;20191;-84
2022/05/10 03:34:59;;;;;;;0.10;0.10;;;;;;;;;;5038271;28;20044;-84
2022/05/10 03:37:30;;;;;;;0.10;0.10;;;;;;;;;;5054865;28;20524;-84
2022/05/10 03:39:56;;;;;;;0.13;0.13;;;;;;;;;;5038422;28;20445;-83
2022/05/10 03:42:22;;;;;;;0.00;0.00;;;;;;;;;;5038547;28;20036;-84
2022/05/10 03:44:52;;;;;;;0.10;0.10;;;;;;;;;;5038496;28;20397;-84
2022/05/10 03:47:19;;;;;;;0.20;0.20;;;;;;;;;;5038703;28;20469;-84
2022/05/10 03:49:47;;;;;;;0.10;0.10;;;;;;;;;;5038628;28;20041;-83
2022/05/10 03:52:14;;;;;;;0.10;0.10;;;;;;;;;;5038724;28;20047;-83
2022/05/10 03:54:40;;;;;;;0.20;0.20;;;;;;;;;;5038347;28;20409;-83
2022/05/10 03:57:07;;;;;;;0.08;0.08;;;;;;;;;;5038229;28;20076;-83
2022/05/10 04:00:04;;;;;;;0.73;0.28;;;;;;;;;;5022086;28;20037;-84
2022/05/10 04:02:30;;;;;;;0.60;0.60;;;;;;;;;;5054567;28;20055;-83
2022/05/10 04:04:56;;;;;;;0.30;0.20;;;;;;;;;;5034859;28;20471;-84
2022/05/10 04:07:22;;;;;;;0.10;0.10;;;;;;;;;;5019087;28;20072;-85
2022/05/10 04:09:48;;;;;;;0.28;0.28;;;;;;;;;;5021892;28;20041;-84
2022/05/10 04:12:14;;;;;;;0.03;0.03;;;;;;;;;;5038227;28;20040;-84
2022/05/10 04:14:40;;;;;;;0.20;0.20;;;;;;;;;;5041554;28;20036;-84
2022/05/10 04:17:06;;;;;;;0.22;0.22;;;;;;;;;;5057936;28;20048;-85
2022/05/10 04:19:32;;;;;;;0.10;0.10;;;;;;;;;;5041797;28;20055;-84
2022/05/10 04:21:58;;;;;;;3.42;2.05;;;;;;;;;;5057061;28;20477;-84
2022/05/10 04:24:24;;;;;;;0.10;0.10;;;;;;;;;;5041593;28;20078;-84
2022/05/10 04:26:51;;;;;;;0.25;0.25;;;;;;;;;;5041429;28;20033;-85
2022/05/10 04:29:17;;;;;;;0.40;0.40;;;;;;;;;;5041080;28;20045;-84
2022/05/10 04:31:45;;;;;;;0.30;0.30;;;;;;;;;;5041293;28;20067;-84
2022/05/10 04:34:11;;;;;;;0.10;0.10;;;;;;;;;;5041749;28;20044;-84
2022/05/10 04:36:38;;;;;;;0.10;0.10;;;;;;;;;;5041029;28;20074;-84
2022/05/10 04:39:06;;;;;;;0.00;0.00;;;;;;;;;;5041263;28;20075;-84
2022/05/10 04:41:33;;;;;;;0.40;0.40;;;;;;;;;;5041590;28;20132;-82
2022/05/10 04:44:04;;;;;;;0.20;0.20;;;;;;;;;;5041403;28;20071;-83
2022/05/10 04:46:33;;;;;;;0.13;0.13;;;;;;;;;;5042008;28;20039;-83
2022/05/10 04:48:59;;;;;;;0.30;0.28;;;;;;;;;;5057775;28;20076;-82
2022/05/10 04:51:26;;;;;;;0.10;0.10;;;;;;;;;;5041245;28;20413;-86
2022/05/10 04:53:52;;;;;;;0.28;0.28;;;;;;;;;;5057064;28;20037;-85
2022/05/10 04:56:19;;;;;;;0.77;0.77;;;;;;;;;;5040652;28;20032;-85
2022/05/10 04:58:45;;;;;;;0.10;0.10;;;;;;;;;;5057429;28;20048;-87
2022/05/10 05:01:14;;;;;;;0.10;0.10;;;;;;;;;;5040844;28;20033;-85
2022/05/10 05:03:48;;;;;;;0.20;0.20;;;;;;;;;;5040670;28;20039;-85
2022/05/10 05:06:14;;;;;;;0.30;0.30;;;;;;;;;;5052357;28;20533;-84
2022/05/10 05:08:40;;;;;;;0.10;0.10;;;;;;;;;;5037650;28;20091;-86
2022/05/10 05:11:06;;;;;;;0.10;0.10;;;;;;;;;;5040300;28;20036;-85
2022/05/10 05:13:32;;;;;;;0.00;0.00;;;;;;;;;;5040062;28;20052;-85
2022/05/10 05:15:58;;;;;;;0.10;0.10;;;;;;;;;;5056696;28;20051;-85
2022/05/10 05:18:24;;;;;;;0.10;0.10;;;;;;;;;;5055853;28;20086;-86
2022/05/10 05:20:50;;;;;;;0.20;0.20;;;;;;;;;;5039754;28;20037;-84
2022/05/10 05:23:19;;;;;;;0.10;0.10;;;;;;;;;;5039721;28;20039;-84
2022/05/10 05:25:46;;;;;;;0.10;0.10;;;;;;;;;;5039942;28;20032;-83
2022/05/10 05:28:15;;;;;;;5.13;3.05;;;;;;;;;;5040553;28;20040;-84
2022/05/10 05:30:43;;;;;;;0.10;0.10;;;;;;;;;;5040004;28;20074;-85
2022/05/10 05:33:09;;;;;;;0.08;0.08;;;;;;;;;;5040263;28;20045;-85
2022/05/10 05:35:35;;;;;;;0.22;0.22;;;;;;;;;;5035245;28;20494;-85
2022/05/10 05:38:02;;;;;;;0.20;0.20;;;;;;;;;;5038300;28;20035;-85
2022/05/10 05:40:28;;;;;;;0.65;0.50;;;;;;;;;;5035625;28;20065;-85
2022/05/10 05:42:55;;;;;;;0.73;0.68;;;;;;;;;;5039899;28;20033;-83
2022/05/10 05:45:23;;;;;;;0.22;0.22;;;;;;;;;;5022263;28;20032;-85
2022/05/10 05:47:49;;;;;;;0.10;0.10;;;;;;;;;;5049522;28;20033;-85
2022/05/10 05:50:16;;;;;;;0.20;0.20;;;;;;;;;;5031212;28;20040;-85
2022/05/10 05:52:44;;;;;;;0.20;0.20;;;;;;;;;;5037758;28;20040;-88
2022/05/10 05:55:11;;;;;;;0.47;0.47;;;;;;;;;;5041927;28;20068;-87
2022/05/10 05:57:38;;;;;;;0.47;0.47;;;;;;;;;;5023055;28;20041;-87
2022/05/10 06:00:09;;;;;;;0.20;0.20;;;;;;;;;;5041657;28;20088;-88
2022/05/10 06:02:36;;;;;;;1.00;0.65;;;;;;;;;;5030715;28;20116;-83
2022/05/10 06:05:02;;;;;;;0.10;0.10;;;;;;;;;;5029846;28;20033;-82
2022/05/10 06:07:29;;;;;;;0.30;0.20;;;;;;;;;;5032437;28;20036;-82
2022/05/10 06:09:55;;;;;;;0.35;0.35;;;;;;;;;;5037737;28;20047;-85
2022/05/10 06:12:21;;;;;;;0.10;0.10;;;;;;;;;;5024194;28;20049;-85
2022/05/10 06:14:47;;;;;;;0.13;0.13;;;;;;;;;;5038984;28;20052;-85
2022/05/10 06:17:15;;;;;;;0.08;0.08;;;;;;;;;;5038773;28;20043;-85
2022/05/10 06:19:41;;;;;;;0.20;0.20;;;;;;;;;;5038960;28;20124;-87
2022/05/10 06:22:10;;;;;;;0.32;0.30;;;;;;;;;;5038998;28;20036;-87
2022/05/10 06:24:36;;;;;;;0.88;0.80;;;;;;;;;;5020532;28;20033;-86
2022/05/10 06:27:03;;;;;;;0.00;0.00;;;;;;;;;;5041454;28;20036;-85
2022/05/10 06:29:29;;;;;;;1.50;0.73;;;;;;;;;;5028443;28;20500;-88
2022/05/10 06:31:55;;;;;;;0.10;0.10;;;;;;;;;;5055046;28;20048;-86
2022/05/10 06:34:21;;;;;;;1.52;1.42;;;;;;;;;;5038045;28;20127;-85
2022/05/10 06:36:47;;;;;;;0.15;0.15;;;;;;;;;;5038323;28;20044;-86
2022/05/10 06:39:13;;;;;;;1.52;1.42;;;;;;;;;;5038417;28;20041;-84
2022/05/10 06:41:41;;;;;;;5.70;2.05;;;;;;;;;;5037890;28;20043;-86
2022/05/10 06:44:07;;;;;;;0.35;0.35;;;;;;;;;;5036852;28;20279;-86
2022/05/10 06:46:48;;;;;;;0.40;0.32;;;;;;;;;;5038033;28;20093;-84
2022/05/10 06:49:14;;;;;;;0.30;0.30;;;;;;;;;;5024560;28;20140;-85
2022/05/10 06:51:40;;;;;;;0.30;0.30;;;;;;;;;;5038571;28;20068;-84
2022/05/10 06:54:07;;;;;;;0.95;0.60;;;;;;;;;;5038518;28;20048;-85
2022/05/10 06:56:37;;;;;;;1.65;0.77;;;;;;;;;;5051371;28;20506;-85
2022/05/10 06:59:04;;;;;;;1.95;1.60;;;;;;;;;;5035729;28;20037;-82
2022/05/10 07:01:30;;;;;;;0.30;0.30;;;;;;;;;;5034128;28;20056;-83
2022/05/10 07:03:58;;;;;;;0.25;0.25;;;;;;;;;;5037904;28;20051;-85
2022/05/10 07:06:25;;;;;;;8.98;1.85;;;;;;;;;;5038897;28;20071;-85
2022/05/10 07:08:51;;;;;;;3.00;1.63;;;;;;;;;;5050385;28;20048;-85
2022/05/10 07:11:18;;;;;;;3.60;0.63;;;;;;;;;;5018463;28;20548;-86
2022/05/10 07:13:48;;;;;;;0.90;0.50;;;;;;;;;;5037215;28;20048;-90
2022/05/10 07:16:15;;;;;;;3.33;1.33;;;;;;;;;;5037199;28;20588;-87
2022/05/10 07:18:41;;;;;;;2.67;1.73;;;;;;;;;;5036676;28;20144;-86
2022/05/10 07:21:07;;;;;;;10.60;1.80;;;;;;;;;;5029086;28;20070;-86
2022/05/10 07:23:33;;;;;;;2.83;1.50;;;;;;;;;;5056543;28;20044;-87
2022/05/10 07:26:01;;;;;;;2.83;2.33;;;;;;;;;;5058270;28;20404;-85
2022/05/10 07:28:30;;;;;;;1.80;0.88;;;;;;;;;;5057999;28;20044;-88
2022/05/10 07:30:57;;;;;;;2.88;1.10;;;;;;;;;;5041657;28;20485;-89
2022/05/10 07:33:24;;;;;;;5.47;1.55;;;;;;;;;;5040067;28;20064;-88
2022/05/10 07:38:35;;;;;;;2.50;1.23;;;;;;;;;;5059464;28;20036;-92
2022/05/10 07:41:01;;;;;;;3.67;1.77;;;;;;;;;;5029942;28;20041;-93
2022/05/10 07:43:29;;;;;;;4.43;1.80;;;;;;;;;;5041955;28;20044;-89
2022/05/10 07:45:55;;;;;;;0.73;0.50;;;;;;;;;;5061260;28;20119;-89
2022/05/10 07:48:21;;;;;;;6.70;1.73;;;;;;;;;;5044326;28;20515;-89
2022/05/10 07:50:50;;;;;;;3.78;1.42;;;;;;;;;;5045477;28;20044;-88
2022/05/10 07:53:18;;;;;;;1.88;1.23;;;;;;;;;;5043271;28;20048;-86
2022/05/10 07:55:47;;;;;;;6.82;1.38;;;;;;;;;;5039615;28;20514;-83
2022/05/10 07:58:13;;;;;;;1.70;0.90;;;;;;;;;;5040374;28;20029;-84
2022/05/10 08:00:40;;;;;;;1.65;1.20;;;;;;;;;;5042319;28;20076;-84
2022/05/10 08:03:15;;;;;;;6.32;1.42;;;;;;;;;;5059698;28;20052;-90
2022/05/10 08:05:41;;;;;;;3.58;2.10;;;;;;;;;;5037471;28;20041;-85
2022/05/10 08:08:07;;;;;;;2.30;1.38;;;;;;;;;;5055214;28;20044;-84
2022/05/10 08:10:33;;;;;;;2.75;1.60;;;;;;;;;;5040439;28;20093;-86
2022/05/10 08:12:59;;;;;;;3.25;2.10;;;;;;;;;;5040768;28;20047;-84
2022/05/10 08:15:27;;;;;;;4.53;1.88;;;;;;;;;;5029901;28;20049;-86
2022/05/10 08:17:53;;;;;;;3.08;1.98;;;;;;;;;;5039743;28;20133;-87
2022/05/10 08:20:22;;;;;;;1.98;1.10;;;;;;;;;;5057786;28;20075;-88
2022/05/10 08:22:47;;;;;;;2.67;1.55;;;;;;;;;;5023135;28;20047;-84
2022/05/10 08:25:14;;;;;;;3.53;1.23;;;;;;;;;;5023216;28;20037;-88
2022/05/10 08:27:40;;;;;;;3.45;1.33;;;;;;;;;;5038693;28;20044;-85
2022/05/10 08:30:07;;;;;;;3.78;2.45;;;;;;;;;;5023400;28;20079;-86
2022/05/10 08:32:33;;;;;;;3.20;1.75;;;;;;;;;;5022542;28;20135;-87
2022/05/10 08:34:59;;;;;;;3.58;1.08;;;;;;;;;;5051703;28;20559;-83
2022/05/10 08:37:25;;;;;;;9.85;2.60;;;;;;;;;;5040772;28;20132;-83
2022/05/10 08:39:52;;;;;;;1.45;0.82;;;;;;;;;;5041187;28;20041;-81
2022/05/10 08:42:21;;;;;;;5.50;0.68;;;;;;;;;;5041338;28;20086;-84
2022/05/10 08:44:51;;;;;;;4.65;1.85;;;;;;;;;;5059053;28;20084;-87
2022/05/10 08:47:17;;;;;;;2.55;1.70;;;;;;;;;;5042739;28;20041;-89
2022/05/10 08:49:43;;;;;;;2.85;1.13;;;;;;;;;;5042229;28;20055;-88
2022/05/10 08:52:11;;;;;;;3.90;1.85;;;;;;;;;;5059273;28;20131;-87
2022/05/10 08:54:38;;;;;;;2.80;1.08;;;;;;;;;;5042966;28;20048;-88
2022/05/10 08:57:10;;;;;;;2.83;1.65;;;;;;;;;;5043774;28;20515;-87
2022/05/10 08:59:46;;;;;;;7.43;1.30;;;;;;;;;;5043204;28;20067;-88
2022/05/10 09:02:19;;;;;;;6.97;2.05;;;;;;;;;;5042947;28;20040;-85
2022/05/10 09:05:11;;;;;;;4.10;1.92;;;;;;;;;;5042236;28;20066;-86
2022/05/10 09:07:52;;;;;;;4.13;2.63;;;;;;;;;;5042267;28;20092;-87
2022/05/10 09:10:21;;;;;;;2.65;1.52;;;;;;;;;;5042664;28;20043;-89
2022/05/10 09:12:53;;;;;;;5.72;2.60;;;;;;;;;;5059355;28;20047;-83
2022/05/10 09:15:20;;;;;;;3.45;2.05;;;;;;;;;;5040469;28;20135;-85
2022/05/10 09:17:46;;;;;;;4.53;0.95;;;;;;;;;;5056771;28;20637;-84
2022/05/10 09:20:13;;;;;;;2.88;1.77;;;;;;;;;;5041748;28;20194;-85
2022/05/10 09:22:42;;;;;;;2.03;1.20;;;;;;;;;;5043112;28;20119;-86
2022/05/10 09:25:21;;;;;;;2.70;1.60;;;;;;;;;;5042632;28;20405;-86
2022/05/10 09:27:50;;;;;;;6.68;2.42;;;;;;;;;;5041698;28;20100;-87
2022/05/10 09:30:27;;;;;;;5.78;2.35;;;;;;;;;;5042807;28;20044;-88
2022/05/10 09:35:49;;;;;;;2.67;1.58;;;;;;;;;;5057981;28;20102;-86
2022/05/10 09:38:17;;;;;;;3.63;1.70;;;;;;;;;;5043376;28;20040;-89
2022/05/10 09:40:46;;;;;;;3.22;1.90;;;;;;;;;;5042689;28;20045;-86
2022/05/10 09:43:26;;;;;;;10.23;1.77;;;;;;;;;;5057613;28;20062;-86
2022/05/10 09:46:10;;;;;;;8.80;3.40;;;;;;;;;;5057164;28;20555;-83
2022/05/10 09:48:37;;;;;;;4.35;2.53;;;;;;;;;;5040056;28;20497;-84
2022/05/10 09:51:24;;;;;;;5.68;2.70;;;;;;;;;;5039157;28;20043;-84
2022/05/10 09:53:50;;;;;;;2.97;1.33;;;;;;;;;;5017515;28;20059;-85
2022/05/10 09:56:25;;;;;;;1.75;1.00;;;;;;;;;;5038666;28;20128;-83
2022/05/10 09:58:58;;;;;;;1.38;0.98;;;;;;;;;;5040969;28;20029;-85
2022/05/10 10:01:38;;;;;;;9.07;1.80;;;;;;;;;;5057799;28;20055;-84
2022/05/10 10:04:23;;;;;;;4.82;2.67;;;;;;;;;;5025677;28;20076;-84
2022/05/10 10:07:06;;;;;;;2.28;1.85;;;;;;;;;;5023637;28;20500;-85
2022/05/10 10:09:38;;;;;;;18.10;2.72;;;;;;;;;;5037815;28;20047;-85
2022/05/10 10:12:06;;;;;;;6.60;3.65;;;;;;;;;;5059025;28;20044;-87
2022/05/10 10:14:40;;;;;;;2.50;1.15;;;;;;;;;;5040478;28;20387;-87
2022/05/10 10:17:29;;;;;;;3.53;1.95;;;;;;;;;;5040122;28;20051;-87
2022/05/10 10:20:12;;;;;;;7.32;2.42;;;;;;;;;;5035532;28;20044;-86
2022/05/10 10:22:50;;;;;;;4.27;1.50;;;;;;;;;;5056928;28;20040;-86
2022/05/10 10:25:19;;;;;;;6.07;1.35;;;;;;;;;;5032107;28;20855;-87
2022/05/10 10:27:54;;;;;;;6.00;1.52;;;;;;;;;;5040046;28;20039;-88
2022/05/10 10:30:27;;;;;;;4.03;2.60;;;;;;;;;;5040556;28;20037;-87
2022/05/10 10:32:58;;;;;;;0.93;0.80;;;;;;;;;;5040154;28;20068;-87
2022/05/10 10:35:28;;;;;;;2.45;1.88;;;;;;;;;;5041173;28;20127;-86
2022/05/10 10:37:56;;;;;;;7.18;1.65;;;;;;;;;;5056647;28;20055;-86
2022/05/10 10:40:34;;;;;;;1.33;0.85;;;;;;;;;;5040309;28;20120;-85
2022/05/10 10:43:05;;;;;;;3.60;1.95;;;;;;;;;;5040485;28;20032;-85
2022/05/10 10:45:45;;;;;;;1.92;1.02;;;;;;;;;;5040695;28;20615;-86
2022/05/10 10:48:31;;;;;;;1.27;0.80;;;;;;;;;;5039975;28;20047;-85
2022/05/10 10:50:59;;;;;;;4.60;2.45;;;;;;;;;;5047097;28;20048;-88
2022/05/10 10:53:26;;;;;;;2.03;1.33;;;;;;;;;;5022106;28;20055;-88
2022/05/10 10:55:59;;;;;;;0.40;0.35;;;;;;;;;;5055485;28;20401;-85
2022/05/10 10:58:31;;;;;;;4.78;1.88;;;;;;;;;;5023971;28;20041;-84
2022/05/10 11:01:26;;;;;;;1.40;0.45;;;;;;;;;;5053244;28;20068;-84
2022/05/10 11:03:58;;;;;;;2.72;1.60;;;;;;;;;;5039261;28;20036;-86
2022/05/10 11:06:25;;;;;;;2.08;0.85;;;;;;;;;;5037526;28;20086;-84
2022/05/10 11:09:06;;;;;;;11.27;1.48;;;;;;;;;;5029948;28;20045;-87
2022/05/10 11:11:47;;;;;;;2.00;1.38;;;;;;;;;;5041832;28;20040;-87
2022/05/10 11:14:31;;;;;;;4.43;1.65;;;;;;;;;;5042342;28;20102;-90
2022/05/10 11:17:00;;;;;;;20.50;2.47;;;;;;;;;;5030731;28;20047;-89
2022/05/10 11:19:45;;;;;;;3.58;1.60;;;;;;;;;;5062812;28;20044;-89
2022/05/10 11:22:30;;;;;;;13.23;2.63;;;;;;;;;;5045663;28;20040;-88
2022/05/10 11:25:11;;;;;;;1.52;0.82;;;;;;;;;;5046324;28;20040;-89
2022/05/10 11:27:50;;;;;;;0.98;0.85;;;;;;;;;;5047314;28;20552;-90
2022/05/10 11:30:22;;;;;;;3.83;1.33;;;;;;;;;;5046918;28;20086;-88
2022/05/10 11:32:57;;;;;;;0.93;0.65;;;;;;;;;;5044739;28;20036;-91
2022/05/10 11:35:35;;;;;;;5.25;1.63;;;;;;;;;;5045141;28;20150;-87
2022/05/10 11:38:08;;;;;;;10.48;1.80;;;;;;;;;;5046258;28;20402;-90
2022/05/10 11:40:53;;;;;;;3.28;1.88;;;;;;;;;;5050836;28;20041;-88
2022/05/10 11:43:26;;;;;;;3.25;1.98;;;;;;;;;;5046392;28;20040;-85
2022/05/10 11:46:04;;;;;;;3.17;1.20;;;;;;;;;;5043873;28;20444;-85
2022/05/10 11:48:35;;;;;;;4.63;2.00;;;;;;;;;;5042577;28;20072;-84
2022/05/10 11:54:07;;;;;;;;;;;;;;;;;;5059460;28;20113;-82
2022/05/10 11:56:38;;;;;;;1.42;0.80;;;;;;;;;;5043315;28;19967;-86
2022/05/10 11:59:05;;;;;;;1.83;1.10;;;;;;;;;;5041469;28;20053;-83
2022/05/10 12:01:50;;;;;;;4.00;1.95;;;;;;;;;;5041803;28;20042;-84
2022/05/10 12:04:36;;;;;;;0.85;0.55;;;;;;;;;;5042328;28;20040;-83
2022/05/10 12:07:26;;;;;;;3.53;1.38;;;;;;;;;;5059367;28;20033;-87
2022/05/10 12:09:52;;;;;;;1.13;0.55;;;;;;;;;;5029429;28;20088;-84
2022/05/10 12:12:33;;;;;;;1.27;0.80;;;;;;;;;;5055677;28;20132;-84
2022/05/10 12:21:21;;;;;;;1.77;1.13;;;;;;;;;;4979504;28;20046;-84
2022/05/10 12:24:06;;;;;;;2.75;1.20;;;;;;;;;;4962727;28;20049;-85
2022/05/10 12:26:44;;;;;;;6.35;1.60;;;;;;;;;;5040037;28;20124;-82
2022/05/10 12:29:29;;;;;;;1.75;1.02;;;;;;;;;;5054379;28;20453;-84
2022/05/10 12:31:55;;;;;;;;;;;;;;;;;;5037265;28;20393;-82
2022/05/10 12:37:52;;;;;;;0.32;0.30;;;;;;;;;;5049562;28;20503;-87
2022/05/10 12:40:34;;;;;;;2.50;1.43;;;;;;;;;;5054461;28;20044;-89
2022/05/10 12:43:19;;;;;;;2.80;1.58;;;;;;;;;;5055075;28;20287;-86
2022/05/10 12:46:03;;;;;;;2.75;1.13;;;;;;;;;;5035549;28;20090;-88
2022/05/10 12:51:38;;;;;;;3.45;1.40;;;;;;;;;;5059866;28;20045;-88
2022/05/10 12:54:07;;;;;;;6.20;0.88;;;;;;;;;;5044715;28;20401;-90
2022/05/10 12:56:42;;;;;;;11.70;1.00;;;;;;;;;;5038884;28;20037;-86
2022/05/10 12:59:24;;;;;;;1.73;1.05;;;;;;;;;;5048555;28;20045;-89
2022/05/10 13:01:51;;;;;;;1.30;0.85;;;;;;;;;;5036004;28;20047;-86
2022/05/10 13:04:22;;;;;;;2.45;0.98;;;;;;;;;;5027662;28;20497;-87
2022/05/10 13:07:07;;;;;;;3.60;1.08;;;;;;;;;;5029280;28;20044;-86
2022/05/10 13:09:38;;;;;;;4.38;1.25;;;;;;;;;;5034235;28;20032;-87
2022/05/10 13:12:13;;;;;;;2.17;1.20;;;;;;;;;;5029787;28;20040;-87
2022/05/10 13:14:46;;;;;;;2.45;1.13;;;;;;;;;;5051415;28;20055;-87
2022/05/10 13:17:19;;;;;;;2.38;1.30;;;;;;;;;;5051398;28;20494;-86
2022/05/10 13:19:46;;;;;;;0.47;0.43;;;;;;;;;;5008309;28;20406;-86
2022/05/10 13:22:15;;;;;;;7.35;1.48;;;;;;;;;;5036907;28;20040;-87
2022/05/10 13:24:45;;;;;;;3.75;0.90;;;;;;;;;;5037334;28;20044;-87
2022/05/10 13:27:28;;;;;;;25.38;1.25;;;;;;;;;;5033270;28;20045;-86
2022/05/10 13:29:56;;;;;;;2.60;1.65;;;;;;;;;;5031967;28;20086;-87
2022/05/10 13:32:29;;;;;;;1.42;0.98;;;;;;;;;;5042117;28;20504;-87
2022/05/10 13:35:02;;;;;;;1.33;0.35;;;;;;;;;;5033173;28;20041;-87
2022/05/10 13:37:30;;;;;;;2.33;0.93;;;;;;;;;;5029750;28;20041;-86
2022/05/10 13:40:01;;;;;;;6.32;1.15;;;;;;;;;;5033973;28;20044;-86
2022/05/10 13:42:27;;;;;;;25.85;5.80;;;;;;;;;;5038709;28;20410;-86
2022/05/10 13:44:53;;;;;;;3.33;1.00;;;;;;;;;;5014971;28;20490;-87
2022/05/10 13:47:50;;;;;;;1.17;0.75;;;;;;;;;;5029866;28;20445;-86
2022/05/10 13:50:22;;;;;;;0.40;0.40;;;;;;;;;;5033428;28;20040;-86
2022/05/10 13:52:49;;;;;;;0.75;0.50;;;;;;;;;;5012250;28;20044;-86
2022/05/10 13:55:16;;;;;;;4.50;1.08;;;;;;;;;;5038497;28;20117;-87
2022/05/10 13:57:54;;;;;;;1.08;0.57;;;;;;;;;;5052135;28;20044;-86
2022/05/10 14:00:26;;;;;;;2.83;1.27;;;;;;;;;;5034423;28;20068;-87
2022/05/10 14:02:54;;;;;;;1.80;0.75;;;;;;;;;;5022010;28;20033;-88
2022/05/10 14:05:40;;;;;;;0.50;0.30;;;;;;;;;;5026926;28;20120;-86
2022/05/10 14:08:28;;;;;;;4.85;1.10;;;;;;;;;;5054614;28;20041;-86
2022/05/10 14:11:07;;;;;;;0.77;0.52;;;;;;;;;;5028925;28;20120;-84
2022/05/10 14:13:35;;;;;;;0.90;0.50;;;;;;;;;;5031073;28;20047;-89
2022/05/10 14:16:01;;;;;;;6.32;0.55;;;;;;;;;;5035337;28;20072;-88
2022/05/10 14:18:34;;;;;;;5.32;2.17;;;;;;;;;;5039535;28;20040;-87
2022/05/10 14:21:08;;;;;;;1.20;0.57;;;;;;;;;;5028661;28;20036;-89
2022/05/10 14:23:36;;;;;;;2.88;0.52;;;;;;;;;;5028656;28;20048;-85
2022/05/10 14:26:22;;;;;;;1.20;0.65;;;;;;;;;;5030895;28;20060;-88
2022/05/10 14:28:53;;;;;;;1.33;0.43;;;;;;;;;;5018727;28;20570;-86
2022/05/10 14:31:27;;;;;;;0.90;0.38;;;;;;;;;;5035225;28;20040;-85
2022/05/10 14:34:04;;;;;;;0.65;0.30;;;;;;;;;;5029203;28;20041;-84
2022/05/10 14:36:41;;;;;;;1.85;0.75;;;;;;;;;;5025447;28;20028;-84
2022/05/10 14:39:18;;;;;;;0.60;0.40;;;;;;;;;;5030877;28;20500;-84
2022/05/10 14:41:48;;;;;;;0.30;0.13;;;;;;;;;;5045162;28;20076;-85
2022/05/10 14:44:22;;;;;;;2.78;0.30;;;;;;;;;;5054810;28;20040;-84
2022/05/10 14:46:53;;;;;;;0.77;0.57;;;;;;;;;;5030262;28;20048;-86
2022/05/10 14:49:50;;;;;;;0.35;0.13;;;;;;;;;;5030662;28;20846;-84
2022/05/10 14:52:24;;;;;;;1.08;0.20;;;;;;;;;;5030493;28;20075;-83
2022/05/10 14:54:51;;;;;;;1.38;0.40;;;;;;;;;;5053411;28;20548;-86
2022/05/10 14:57:20;;;;;;;5.40;0.40;;;;;;;;;;5033363;28;20040;-86
2022/05/10 14:59:54;;;;;;;0.20;0.17;;;;;;;;;;5032691;28;20037;-87
2022/05/10 15:02:29;;;;;;;3.40;0.52;;;;;;;;;;5037477;28;20506;-86
2022/05/10 15:04:56;;;;;;;0.75;0.40;;;;;;;;;;5038862;28;20072;-85
2022/05/10 15:07:22;;;;;;;1.00;0.40;;;;;;;;;;5034561;28;20381;-85
2022/05/10 15:09:49;;;;;;;0.13;0.13;;;;;;;;;;5031432;28;20481;-85
2022/05/10 15:14:59;;;;;;;0.20;0.17;;;;;;;;;;5044290;28;20049;-85
2022/05/10 15:17:26;;;;;;;2.45;0.20;;;;;;;;;;5049731;28;20040;-85
2022/05/10 15:19:52;;;;;;;0.10;0.10;;;;;;;;;;5027814;28;20506;-86
2022/05/10 15:22:18;;;;;;;0.50;0.40;;;;;;;;;;5035698;28;20091;-86
2022/05/10 15:24:45;;;;;;;2.05;0.60;;;;;;;;;;5034574;28;20033;-87
2022/05/10 15:27:18;;;;;;;0.20;0.20;;;;;;;;;;5038904;28;20047;-87
2022/05/10 15:29:46;;;;;;;0.80;0.10;;;;;;;;;;5023750;28;20453;-86
2022/05/10 15:32:12;;;;;;;40.47;0.85;;;;;;;;;;5034930;28;20120;-85